Sonic Adventure (DX): Time Rankings

Records: Times | Rings | Scores | Races | Bosses | Freestyle
Leaders: Times | Rings | Scores | Races | Bosses | Freestyle | Overall
Rank Player Percent Points Date
1 Gamepro011 99.6% 20 08-19-17
2 Sonicspeedruner 98.6% 76 08-19-17
3 Dashjump 95.1% 275 08-19-17
4 Jawzun 95.0% 277 08-19-17
5 DarkPolarNight 94.1% 329 08-19-17
6 drminus 92.0% 444 08-19-17
7 F-Man 91.9% 453 08-19-17
8 THC98 91.6% 472 08-19-17
9 ike6252 89.6% 584 08-19-17
10 Avento128bits 89.2% 605 08-19-17
11 francisco 88.9% 621 08-19-17
12 ethmar 88.4% 648 08-19-17
13 DarkspinesSonic 88.3% 652 08-19-17
14 Marth 88.2% 658 08-19-17
15 frankoredstrato 87.0% 728 08-19-17
16 TheRealShadnic 85.3% 824 08-19-17
17 chainchumper 85.0% 842 08-19-17
18 Paragod 84.3% 880 08-19-17
19 HyperSonic7701 84.1% 893 08-19-17
20 xXMegaManXx 81.1% 1059 08-19-17
21 InferSaime 81.1% 1062 08-19-17
22 Coolfansonic 80.8% 1076 08-19-17
23 Stefan 79.6% 1143 08-19-17
24 PfoSonic 79.1% 1169 08-19-17
25 bertin 77.4% 1269 08-19-17
26 yoshifan 76.9% 1298 08-19-17
27 Dave Cramer 75.2% 1389 08-19-17
28 RPGnutter 75.0% 1404 08-19-17
29 sonicam 73.4% 1492 08-19-17
30 Cybrax 73.1% 1508 08-19-17
31 Ring Rush 70.7% 1646 08-19-17
32 mike89 69.9% 1691 08-19-17
33 Nim 69.8% 1692 08-19-17
34 NintenDan 69.6% 1707 08-19-17
35 a_moustache 67.8% 1805 08-19-17
36 chaos shadow 66.4% 1884 08-19-17
37 SkyLights 66.1% 1903 08-19-17
38 Combo 64.7% 1981 08-19-17
39 SADXTryHard 62.5% 2106 08-19-17
40 P1 Pause 61.9% 2137 08-19-17
41 Groudon199 60.0% 2245 08-19-17
42 Shadow Jacky 59.3% 2284 08-19-17
43 Game_Complete 59.0% 2303 08-19-17
44 AxlThunder 58.5% 2331 08-19-17
45 Thorn 58.0% 2355 08-19-17
46 VMU Player Banned 58.0% 2359 08-19-17
47 SB737 56.9% 2417 08-19-17
48 The Knuckles Chao 56.9% 2418 08-19-17
49 Chao_Fan 56.6% 2436 08-19-17
50 SadisticMystic 56.5% 2443 08-19-17
51 Mastakirby 55.9% 2473 08-19-17
52 OmegaDJ 55.5% 2497 08-19-17
53 Parax 55.5% 2498 08-19-17
54 LittleBigness 55.0% 2528 08-19-17
55 Auriman1 54.9% 2531 08-19-17
56 KinkyCadence 54.8% 2535 08-19-17
57 magnum12 54.7% 2541 08-19-17
57 mauserman 54.7% 2541 08-19-17
59 Psyknux 54.7% 2544 08-19-17
60 Turbos 54.4% 2560 08-19-17
61 GerbilSoft 53.8% 2591 08-19-17
62 GreatStar 53.4% 2615 08-19-17
63 Webber3000 53.1% 2632 08-19-17
64 Hipertails12 51.5% 2725 08-19-17
65 James_Bertolli 50.0% 2810 08-19-17
66 Cream147 49.6% 2827 08-19-17
67 welldooder64 48.8% 2875 08-19-17
68 Skylace 48.7% 2883 08-19-17
69 Quartz 48.5% 2891 08-19-17
70 Psymar 48.2% 2906 08-19-17
71 Omega Rafael Santos 48.0% 2921 08-19-17
72 Diamond 47.9% 2928 08-19-17
73 teamblackarms 47.3% 2961 08-19-17
74 SonicWinDX 46.7% 2994 08-19-17
75 Andrea Ritsu 46.6% 3001 08-19-17
76 buddychaos0415 46.1% 3029 08-19-17
77 SilverSonic 45.2% 3076 08-19-17
78 SilvertheAlmighty 44.9% 3092 08-19-17
79 metanightmare22 44.4% 3123 08-19-17
80 itsPersonnal 44.0% 3144 08-19-17
81 WeegeeZV 44.0% 3145 08-19-17
82 lordmetalsonic 42.2% 3247 08-19-17
83 Arch 41.7% 3275 08-19-17
84 videogamemaster777 40.8% 3323 08-19-17
85 N 40.5% 3343 08-19-17
86 supersonicfan 40.4% 3346 08-19-17
87 Termon 40.2% 3360 08-19-17
88 LilZero 39.7% 3388 08-19-17
89 paulie9990 39.5% 3400 08-19-17
90 supersonic465 39.2% 3414 08-19-17
91 Drakodan 39.2% 3415 08-19-17
92 FuzZerd 39.2% 3416 08-19-17
93 Kanimayo_Jp 38.9% 3430 08-19-17
94 eggFL 38.8% 3435 08-19-17
95 BigAL49 38.6% 3450 08-19-17
96 danieldude 37.7% 3496 08-19-17
97 Siavash Tazari 37.2% 3527 08-19-17
98 Don 37.1% 3530 08-19-17
99 Fr3nZy 36.2% 3581 08-19-17
100 f0rever_zer0 36.2% 3583 08-19-17
101 Cyan Ryan 35.6% 3619 08-19-17
102 LinksDarkArrows 35.2% 3639 08-19-17
103 Cod4Scopes 35.0% 3649 08-19-17
104 JamminX42 34.5% 3677 08-19-17
105 elecmouse101 34.3% 3689 08-19-17
106 Staf 34.1% 3700 08-19-17
107 Therio 34.0% 3705 08-19-17
108 Austinf 33.8% 3719 08-19-17
109 MiStEr_ShAoLiN 33.7% 3723 08-19-17
110 Twilisailor 33.3% 3746 08-19-17
111 videogamer1014 32.8% 3773 08-19-17
112 Xia 32.5% 3793 08-19-17
113 AC-Tygo 32.3% 3801 08-19-17
114 BrokenArthritis 32.2% 3808 08-19-17
115 welshmoose05 32.0% 3821 08-19-17
116 OddCook 31.6% 3842 08-19-17
117 The Great Lord Mick 31.2% 3863 08-19-17
118 Aitamen 30.7% 3894 08-19-17
119 Matt_TY 30.3% 3917 08-19-17
120 Maxinfamily 30.1% 3925 08-19-17
121 dabestgamer 30.1% 3928 08-19-17
122 Mcshuggets 29.9% 3938 08-19-17
123 joecoolgames 29.2% 3975 08-19-17
124 SuperBlitzCraig 28.7% 4002 08-19-17
125 Irregular Zero 28.6% 4008 08-19-17
126 Shadowthegreat 28.6% 4010 08-19-17
127 superjupi 28.6% 4012 08-19-17
128 Rolken 28.2% 4031 08-19-17
129 SuperSonic101 28.1% 4039 08-19-17
130 sonamyfan666 27.7% 4060 08-19-17
131 Spinballwizard 27.4% 4075 08-19-17
132 koinu93 27.3% 4082 08-19-17
133 thewaytodawnnn 27.3% 4083 08-19-17
134 SonicKnuckles 27.2% 4086 08-19-17
135 iarebored 27.1% 4095 08-19-17
136 Hunters13 26.9% 4106 08-19-17
137 SaviourDC 26.6% 4125 08-19-17
138 EngiNerd 26.3% 4140 08-19-17
139 adf 26.0% 4158 08-19-17
140 Megaman EXE565 25.4% 4191 08-19-17
141 The T 25.1% 4207 08-19-17
142 Sonic Singularity 24.5% 4239 08-19-17
143 timpkmn89 23.8% 4281 08-19-17
144 Platformer 23.7% 4286 08-19-17
145 SeaWolf 23.5% 4294 08-19-17
146 Pokemonmaster888 23.5% 4296 08-19-17
147 Sondow 23.0% 4325 08-19-17
148 Swift Hobo 22.7% 4341 08-19-17
149 KitsuneYamaro 22.4% 4357 08-19-17
150 Rickyman48 22.0% 4381 08-19-17
151 FoxBoy 22.0% 4383 08-19-17
152 Kogen Player Banned 21.5% 4407 08-19-17
153 TFEC Headshot 21.0% 4435 08-19-17
154 Jerzia 21.0% 4438 08-19-17
155 HyperSonic64 20.3% 4477 08-19-17
156 Starlight Sable 20.0% 4492 08-19-17
157 andres430 19.7% 4510 08-19-17
158 IsisDazs 19.6% 4514 08-19-17
159 crazy1993 19.6% 4517 08-19-17
160 Powerjohn25 19.3% 4531 08-19-17
161 SonicU260 18.8% 4560 08-19-17
162 MPit08 18.3% 4586 08-19-17
163 SonicAD 18.0% 4604 08-19-17
164 iSonicKid2K 17.7% 4621 08-19-17
165 dShadow 17.6% 4626 08-19-17
166 Swinkly 17.5% 4635 08-19-17
167 sonicd5 17.3% 4646 08-19-17
168 Cutiefox 17.1% 4658 08-19-17
169 Chawkk 16.7% 4676 08-19-17
170 Monkeh 16.6% 4682 08-19-17
171 Miles9999 16.1% 4713 08-19-17
172 Bass 15.6% 4740 08-19-17
173 DaDude 15.6% 4742 08-19-17
174 Drflash55 15.5% 4748 08-19-17
175 Cruizer 15.4% 4750 08-19-17
176 Destroyer121121 15.4% 4754 08-19-17
177 superiorsonic 15.0% 4777 08-19-17
178 Badlex727 14.8% 4784 08-19-17
179 neaolas 14.7% 4790 08-19-17
179 zapp 14.7% 4790 08-19-17
181 Yish 14.5% 4802 08-19-17
182 UninspiredUsername 14.3% 4816 08-19-17
183 Cooljay 14.1% 4822 08-19-17
184 gamefreak1292 14.0% 4833 08-19-17
185 Sora_yx 13.3% 4871 08-19-17
186 GarnetPrincess 13.2% 4877 08-19-17
187 Chaos_Overlord 13.1% 4880 08-19-17
188 Valfore 12.5% 4915 08-19-17
189 soniccoloursunleashed 12.2% 4929 08-19-17
190 booo95 11.9% 4949 08-19-17
191 ShinigamiMachine 11.9% 4950 08-19-17
192 sonicspeed 11.5% 4972 08-19-17
192 Sonicsuperstar1 11.5% 4972 08-19-17
194 SirTobbii 11.3% 4982 08-19-17
195 Werey 11.0% 5000 08-19-17
196 FocusSight64 10.9% 5002 08-19-17
197 Mo Player Banned 10.9% 5005 08-19-17
198 Dekuboy 10.8% 5009 08-19-17
199 Venick409 9.7% 5072 08-19-17
200 Sithwarrior26 9.7% 5073 08-19-17
201 nman36 9.6% 5075 08-19-17
202 dekki1234 9.2% 5100 08-19-17
203 CyberShadow 9.1% 5103 08-19-17
204 ingx24 9.1% 5104 08-19-17
205 Colomb_30 8.9% 5115 08-19-17
206 Fozer 8.9% 5117 08-19-17
207 Egor305 8.7% 5131 08-19-17
208 Regano1000 8.4% 5143 08-19-17
209 douglas 8.4% 5144 08-19-17
210 1stKirbyever 8.1% 5161 08-19-17
211 nuckrieg 8.1% 5162 08-19-17
212 TimTH 7.9% 5176 08-19-17
212 wheatrich 7.9% 5176 08-19-17
214 Zip 7.7% 5183 08-19-17
215 Brian_pso 7.7% 5185 08-19-17
216 Th4tN1nj4Turtl3 7.5% 5195 08-19-17
217 TakaRikka 7.5% 5196 08-19-17
218 niscool 7.3% 5205 08-19-17
219 Mariosonic15 7.2% 5214 08-19-17
220 Triseena 7.1% 5219 08-19-17
221 ieatatsonic 6.9% 5230 08-19-17
222 ModifiedMonkee 6.8% 5236 08-19-17
223 HermitHelmet 6.7% 5242 08-19-17
223 MStitomix 6.7% 5242 08-19-17
225 Artie 6.6% 5249 08-19-17
226 Got4n 6.4% 5257 08-19-17
227 Cort_pso 6.3% 5265 08-19-17
228 BlankTH 6.2% 5268 08-19-17
229 Jose_15 6.1% 5276 08-19-17
230 Richied 5.9% 5285 08-19-17
231 SuperSonicfan9595 5.8% 5292 08-19-17
232 Ace747 5.6% 5301 08-19-17
233 HHNNBBHHN 5.5% 5310 08-19-17
234 Aiko 5.4% 5315 08-19-17
235 Paixii 5.3% 5322 08-19-17
236 slade23 5.1% 5328 08-19-17
237 Mankster101 5.0% 5336 08-19-17
238 BallzeH 5.0% 5338 08-19-17
238 BecauseWarAnvil 5.0% 5338 08-19-17
240 FSSRandomvids 4.9% 5342 08-19-17
241 ArcticDragon 4.9% 5344 08-19-17
242 PsyBorg 4.8% 5346 08-19-17
243 Jamixesa 4.8% 5347 08-19-17
244 Nickson98 4.7% 5354 08-19-17
245 Crydio 4.5% 5363 08-19-17
246 TheUltraBlur 4.5% 5367 08-19-17
247 ALundstrom10 4.4% 5372 08-19-17
248 tal39h 4.3% 5373 08-19-17
249 MarewBFN 4.3% 5376 08-19-17
250 stanski 4.2% 5382 08-19-17
251 p0ker 4.0% 5393 08-19-17
252 knuckles_sonic8 4.0% 5394 08-19-17
253 Blue Infamy 3.9% 5398 08-19-17
254 ErrortheCucco 3.7% 5409 08-19-17
255 Rikum22 3.7% 5412 08-19-17
256 TheChaosEmeraIds 3.5% 5418 08-19-17
257 sonic1001 3.5% 5420 08-19-17
258 AJSIV 3.4% 5424 08-19-17
259 Dage4Aquatic 3.4% 5425 08-19-17
260 syco1098 3.4% 5427 08-19-17
261 Sonic the Hedgehod16 3.4% 5428 08-19-17
262 ASINISTERTACO 3.2% 5437 08-19-17
263 Calfd 3.2% 5440 08-19-17
264 sonicfan9 3.1% 5441 08-19-17
265 MK 3.1% 5445 08-19-17
266 themachoman202 2.9% 5452 08-19-17
267 Fivavoa 2.8% 5461 08-19-17
268 Mr. Jones 2.7% 5463 08-19-17
269 BlackArmsShadow 2.7% 5465 08-19-17
269 djmat 2.7% 5465 08-19-17
271 arcfx1985 2.7% 5466 08-19-17
272 ptorflaxendrosis 2.7% 5467 08-19-17
272 Sonique Hedgehog 2.7% 5467 08-19-17
274 FlandreScarlet9999vr 2.5% 5474 08-19-17
275 Zeldocto 2.5% 5476 08-19-17
276 BeeAwwb 2.5% 5477 08-19-17
276 KaM Mark MaK 2.5% 5477 08-19-17
278 ShadouZaHejjihoggu 2.3% 5486 08-19-17
279 darkstarblaze 2.3% 5487 08-19-17
280 Sarger001 2.3% 5489 08-19-17
281 Sonic The Star 2.2% 5495 08-19-17
282 darkersupershadic 2.2% 5496 08-19-17
283 SpiritDragon1995 2.1% 5497 08-19-17
284 BioShadow 2.1% 5499 08-19-17
285 Grady219 2.1% 5501 08-19-17
285 sonic29887 2.1% 5501 08-19-17
287 shadowblast63 Player Banned 2.0% 5506 08-19-17
288 Jawaah 1.9% 5508 08-19-17
289 Antek 1.9% 5511 08-19-17
290 Klaus 1.9% 5513 08-19-17
291 SkyBon 1.8% 5517 08-19-17
292 Shanekilz 1.4% 5536 08-19-17
293 isaihtb11 1.4% 5537 08-19-17
294 OhNoes! 1.3% 5542 08-19-17
294 zaktu40 1.3% 5542 08-19-17
296 gaara1234 1.3% 5545 08-19-17
297 S-MS32X-S 1.2% 5547 08-19-17
298 MastaToken 1.2% 5552 08-19-17
299 Mister_Slick 1.1% 5557 08-19-17
300 Rush Hero 1.0% 5561 08-19-17
300 Sonic06Fan 1.0% 5561 08-19-17
302 SonicMega167 0.9% 5566 08-19-17
303 oTaiIilLsS 0.9% 5568 08-19-17
304 gamed00d 0.9% 5569 08-19-17
304 SilverK 0.9% 5569 08-19-17
306 Heroes_Hater 0.7% 5577 08-19-17
307 Redd 0.7% 5580 08-19-17
308 Burningskull123 0.6% 5586 08-19-17
309 Sonicontherun 0.4% 5597 08-19-17
310 antiwwe 0.3% 5603 08-19-17
311 Iwannabelink 0.2% 5605 08-19-17
312 Genuine Hedgehog 0.2% 5606 08-19-17
312 SonataSpinDash 0.2% 5606 08-19-17
314 dragondragon18 0.1% 5610 08-19-17
315 SonicK100 0.1% 5612 08-19-17
316 Tyrouble 0.0% 5617 08-19-17
317 LancexExWx 0.0% 5620 08-19-17
317 neji_hyuuga 0.0% 5620 08-19-17
317 Over 0.0% 5620 08-19-17
317 sdj6707 Player Banned 0.0% 5620 08-19-17
317 Tran Sonic Fan Player Banned 0.0% 5620 08-19-17

This page is using the New Data Table System. [FUTURE]

Game ID: 3 | Category ID: 1
Hits: 8,693 | Hits This Month: 27 | DB Calls: 24 | Mem Usage: 5.47 MB | Time: 0.20s | Printable

The Sonic Center v3.9
Copyright 2003-2011 by The Sonic Center Team.